Time;durP1;ratioP1;P1;durP2;ratioP2;P2;SDS_P1;SDS_P2;PMS_P1;PMS_P2;Temp;Humidity;BMP_temperature;BMP_pressure;BME280_temperature;BME280_humidity;BME280_pressure;Samples;Min_cycle;Max_cycle;Signal;HPM_P1;HPM_P2
2021/11/10 00:02:09;;;;;;;5.70;3.77;;;17.40;53.50;;;;;;10402439;28;20218;-67
2021/11/10 00:07:32;;;;;;;5.97;2.70;;;17.50;53.50;;;;;;10410298;28;20225;-68
2021/11/10 00:12:56;;;;;;;4.97;2.47;;;17.40;53.20;;;;;;10411961;28;20198;-67
2021/11/10 00:18:20;;;;;;;4.27;3.03;;;17.50;53.40;;;;;;10408175;28;20213;-66
2021/11/10 00:23:42;;;;;;;4.80;2.60;;;17.40;53.50;;;;;;10405803;28;20220;-66
2021/11/10 00:34:14;;;;;;;2.60;2.10;;;17.40;53.20;;;;;;10466064;22;20230;-68
2021/11/10 00:39:36;;;;;;;3.00;2.20;;;17.40;53.40;;;;;;10446905;28;20225;-68
2021/11/10 00:44:58;;;;;;;4.07;2.13;;;17.40;53.30;;;;;;10477720;28;20207;-68
2021/11/10 00:50:22;;;;;;;6.80;3.00;;;17.40;53.20;;;;;;10451421;28;20221;-68
2021/11/10 00:55:44;;;;;;;4.13;2.57;;;17.40;53.30;;;;;;10461447;28;20197;-67
2021/11/10 01:01:07;;;;;;;4.57;2.53;;;17.40;53.30;;;;;;10461663;28;20224;-68
2021/11/10 01:06:32;;;;;;;4.97;2.67;;;17.40;53.10;;;;;;10435744;28;20216;-68
2021/11/10 01:11:54;;;;;;;4.50;2.30;;;17.30;52.90;;;;;;10463174;28;20679;-67
2021/11/10 01:17:16;;;;;;;5.30;2.67;;;17.40;53.00;;;;;;10490405;28;20675;-68
2021/11/10 01:22:41;;;;;;;4.67;2.70;;;17.40;53.00;;;;;;10464060;28;20227;-68
2021/11/10 01:28:04;;;;;;;5.57;2.80;;;17.40;52.80;;;;;;10483657;28;20203;-68
2021/11/10 01:33:26;;;;;;;6.57;3.00;;;17.40;52.80;;;;;;10490472;28;20220;-68
2021/11/10 01:38:50;;;;;;;4.30;2.63;;;17.30;52.90;;;;;;10491080;28;20691;-67
2021/11/10 01:44:17;;;;;;;3.83;2.37;;;17.30;52.60;;;;;;10457698;28;20236;-68
2021/11/10 01:49:41;;;;;;;4.80;2.67;;;17.40;52.60;;;;;;10461891;28;20212;-68
2021/11/10 01:55:05;;;;;;;4.17;2.83;;;17.30;52.60;;;;;;10489373;28;20203;-68
2021/11/10 02:00:31;;;;;;;4.53;2.77;;;17.30;52.70;;;;;;10474338;28;20224;-68
2021/11/10 02:05:53;;;;;;;3.53;2.40;;;17.30;52.40;;;;;;10443491;28;20200;-68
2021/11/10 02:11:16;;;;;;;3.83;2.60;;;17.30;52.40;;;;;;10485216;28;20726;-68
2021/11/10 02:16:39;;;;;;;4.63;2.70;;;17.30;52.50;;;;;;10486240;28;20233;-68
2021/11/10 02:22:03;;;;;;;5.23;2.80;;;17.30;52.60;;;;;;10472940;28;20231;-68
2021/11/10 02:27:32;;;;;;;3.93;2.33;;;17.30;52.30;;;;;;10496899;28;20207;-68
2021/11/10 02:32:58;;;;;;;3.77;2.30;;;17.30;52.40;;;;;;10496470;28;20691;-68
2021/11/10 02:38:21;;;;;;;4.90;2.70;;;17.30;52.40;;;;;;10496294;28;20695;-68
2021/11/10 02:43:44;;;;;;;3.77;2.70;;;17.30;52.20;;;;;;10478288;28;20305;-68
2021/11/10 02:49:06;;;;;;;3.40;2.57;;;17.30;52.30;;;;;;10481777;28;20254;-68
2021/11/10 02:54:32;;;;;;;3.90;2.47;;;17.30;52.30;;;;;;10466774;28;20193;-68
2021/11/10 02:59:54;;;;;;;4.73;2.23;;;17.30;52.30;;;;;;10463898;28;20220;-68
2021/11/10 03:05:16;;;;;;;4.40;2.57;;;17.30;52.00;;;;;;10485967;28;20211;-68
2021/11/10 03:10:40;;;;;;;4.23;2.80;;;17.30;52.10;;;;;;10485336;28;20213;-68
2021/11/10 03:16:02;;;;;;;3.60;2.60;;;17.20;52.10;;;;;;10463983;28;20209;-68
2021/11/10 03:21:24;;;;;;;4.63;2.47;;;17.20;52.00;;;;;;10472973;28;20576;-68
2021/11/10 03:26:48;;;;;;;5.37;2.90;;;17.20;51.80;;;;;;10449399;28;20220;-68
2021/11/10 03:32:11;;;;;;;3.90;2.37;;;17.30;51.90;;;;;;10468015;28;20224;-68
2021/11/10 03:37:34;;;;;;;3.90;2.50;;;17.20;52.00;;;;;;10494461;28;20215;-68
2021/11/10 03:42:57;;;;;;;4.37;2.80;;;17.20;51.70;;;;;;10493405;28;20216;-68
2021/11/10 03:48:19;;;;;;;4.73;2.70;;;17.20;51.40;;;;;;10446841;28;20200;-68
2021/11/10 03:53:41;;;;;;;5.00;2.73;;;17.20;51.40;;;;;;10463663;28;20219;-68
2021/11/10 03:59:05;;;;;;;4.40;2.47;;;17.20;51.50;;;;;;10494551;28;20204;-68
2021/11/10 04:04:27;;;;;;;4.33;2.60;;;17.20;51.40;;;;;;10440312;28;20224;-68
2021/11/10 04:09:49;;;;;;;6.57;3.10;;;17.20;51.20;;;;;;10486417;28;20219;-68
2021/11/10 04:15:13;;;;;;;4.50;2.83;;;17.20;51.40;;;;;;10475159;28;20215;-68
2021/11/10 04:20:35;;;;;;;3.50;2.67;;;17.20;51.40;;;;;;10472872;28;20223;-68
2021/11/10 04:25:59;;;;;;;4.17;2.70;;;17.20;51.40;;;;;;10463499;28;20231;-69
2021/11/10 04:31:23;;;;;;;5.27;2.40;;;17.20;51.30;;;;;;10478345;28;20362;-67
2021/11/10 04:36:46;;;;;;;3.07;2.47;;;17.20;51.20;;;;;;10491744;28;20203;-65
2021/11/10 04:42:09;;;;;;;4.20;2.80;;;17.20;51.30;;;;;;10447154;28;20213;-67
2021/11/10 04:47:33;;;;;;;4.93;2.97;;;17.20;50.90;;;;;;10488575;28;20679;-68
2021/11/10 04:52:56;;;;;;;4.67;2.97;;;17.30;50.90;;;;;;10476120;28;20220;-67
2021/11/10 04:58:18;;;;;;;5.50;3.40;;;17.30;50.60;;;;;;10462274;28;20253;-68
2021/11/10 05:03:42;;;;;;;7.00;3.10;;;17.40;50.40;;;;;;10479936;28;20349;-68
2021/11/10 05:09:04;;;;;;;7.30;3.20;;;17.30;50.70;;;;;;10453609;28;20205;-67
2021/11/10 05:14:26;;;;;;;5.33;2.63;;;17.30;50.20;;;;;;10416729;28;20546;-68
2021/11/10 05:19:50;;;;;;;5.80;3.17;;;17.30;50.40;;;;;;10461758;28;20204;-67
2021/11/10 05:25:14;;;;;;;4.47;2.80;;;17.20;50.50;;;;;;10446403;28;20270;-67
2021/11/10 05:30:37;;;;;;;4.97;3.07;;;17.20;50.70;;;;;;10470223;28;20599;-68
2021/11/10 05:36:00;;;;;;;3.87;2.97;;;17.20;50.70;;;;;;10458880;28;20691;-68
2021/11/10 05:41:23;;;;;;;5.60;3.40;;;17.20;50.50;;;;;;10478370;28;20225;-68
2021/11/10 05:46:45;;;;;;;6.13;3.93;;;17.10;50.40;;;;;;10453120;28;20213;-68
2021/11/10 05:52:10;;;;;;;4.43;3.60;;;17.10;50.70;;;;;;10460259;28;20284;-68
2021/11/10 05:57:34;;;;;;;6.23;4.00;;;17.10;50.70;;;;;;10471704;28;20204;-68
2021/11/10 06:02:57;;;;;;;6.23;3.70;;;17.10;50.90;;;;;;10479969;28;20289;-68
2021/11/10 06:08:20;;;;;;;6.67;3.97;;;17.00;50.90;;;;;;10464204;28;20201;-67
2021/11/10 06:13:43;;;;;;;6.50;4.10;;;17.00;51.00;;;;;;10474655;28;20710;-68
2021/11/10 06:19:05;;;;;;;5.47;4.10;;;17.00;50.70;;;;;;10442001;28;20227;-67
2021/11/10 06:24:28;;;;;;;5.03;3.47;;;17.10;50.50;;;;;;10463950;28;20699;-68
2021/11/10 06:29:51;;;;;;;5.67;3.77;;;17.20;50.20;;;;;;10478116;28;20225;-68
2021/11/10 06:35:14;;;;;;;5.53;3.40;;;17.30;49.60;;;;;;10457099;28;20206;-68
2021/11/10 06:40:37;;;;;;;6.23;3.63;;;17.40;49.10;;;;;;10455833;28;20315;-67
2021/11/10 06:45:59;;;;;;;4.10;3.10;;;17.40;49.00;;;;;;10454621;28;20955;-68
2021/11/10 06:51:21;;;;;;;6.10;3.10;;;17.30;49.20;;;;;;10453713;28;20213;-68
2021/11/10 06:56:45;;;;;;;6.07;3.40;;;17.20;49.40;;;;;;10460731;22;20220;-62
2021/11/10 07:02:08;;;;;;;6.03;3.47;;;17.20;49.70;;;;;;10441606;28;20232;-62
2021/11/10 07:07:30;;;;;;;5.40;3.87;;;17.10;49.90;;;;;;10440410;28;20590;-63
2021/11/10 07:12:53;;;;;;;5.97;3.50;;;17.10;49.90;;;;;;10417043;28;20566;-63
2021/11/10 07:18:16;;;;;;;4.27;3.10;;;17.10;50.40;;;;;;10419643;28;20218;-63
2021/11/10 07:23:38;;;;;;;4.53;3.00;;;17.10;51.10;;;;;;10423554;28;20586;-64
2021/11/10 07:29:02;;;;;;;4.27;2.50;;;17.20;51.40;;;;;;10409797;28;20696;-63
2021/11/10 07:34:24;;;;;;;4.20;3.00;;;17.20;51.60;;;;;;10451670;28;20733;-63
2021/11/10 07:39:47;;;;;;;3.77;3.10;;;17.20;51.70;;;;;;10450593;28;20207;-64
2021/11/10 07:45:15;;;;;;;3.03;2.73;;;17.20;51.90;;;;;;10459846;28;20224;-63
2021/11/10 07:50:38;;;;;;;4.70;2.70;;;17.30;52.10;;;;;;10439670;28;20197;-63
2021/11/10 07:56:00;;;;;;;4.03;3.07;;;17.30;52.10;;;;;;10431600;28;20239;-64
2021/11/10 08:01:23;;;;;;;3.80;2.43;;;17.30;51.60;;;;;;10424256;28;20299;-64
2021/11/10 08:06:46;;;;;;;3.83;2.60;;;17.40;50.90;;;;;;10463290;28;20225;-63
2021/11/10 08:12:08;;;;;;;3.17;2.57;;;17.50;50.80;;;;;;10447555;28;20199;-64
2021/11/10 08:17:33;;;;;;;4.40;2.53;;;17.60;50.90;;;;;;10462731;28;20595;-63
2021/11/10 08:22:55;;;;;;;2.77;2.13;;;17.60;51.20;;;;;;10463773;28;20220;-64
2021/11/10 08:28:18;;;;;;;5.53;2.53;;;17.60;51.50;;;;;;10472243;28;20224;-63
2021/11/10 08:33:41;;;;;;;3.60;2.30;;;17.60;51.90;;;;;;10455901;28;20193;-64
2021/11/10 08:39:04;;;;;;;4.27;2.43;;;17.60;52.30;;;;;;10441730;28;20197;-64
2021/11/10 08:44:27;;;;;;;4.83;2.03;;;17.60;52.50;;;;;;10440627;28;20221;-64
2021/11/10 08:49:51;;;;;;;2.60;1.80;;;17.60;52.60;;;;;;10436737;28;20651;-64
2021/11/10 08:55:15;;;;;;;2.57;1.90;;;17.60;52.70;;;;;;10435592;28;20656;-63
2021/11/10 09:00:37;;;;;;;3.30;1.73;;;17.60;52.90;;;;;;10427559;28;20189;-63
2021/11/10 09:06:01;;;;;;;2.07;1.67;;;17.60;53.20;;;;;;10431035;28;20702;-63
2021/11/10 09:11:23;;;;;;;1.73;1.50;;;17.60;53.30;;;;;;10425730;28;20239;-64
2021/11/10 09:16:47;;;;;;;4.43;1.60;;;17.60;53.50;;;;;;10423321;28;20217;-63
2021/11/10 09:22:11;;;;;;;2.07;1.70;;;17.60;53.90;;;;;;10426042;28;20220;-64
2021/11/10 09:27:34;;;;;;;2.27;1.80;;;17.60;54.20;;;;;;10447209;28;20303;-64
2021/11/10 09:32:58;;;;;;;2.60;1.90;;;17.60;54.30;;;;;;10435977;28;20204;-63
2021/11/10 09:38:23;;;;;;;2.83;1.80;;;17.70;54.00;;;;;;10449757;28;20216;-63
2021/11/10 09:43:45;;;;;;;3.00;1.60;;;17.70;53.50;;;;;;10435963;28;20697;-63
2021/11/10 09:49:09;;;;;;;1.80;1.70;;;17.80;53.60;;;;;;10439826;28;20204;-63
2021/11/10 09:54:32;;;;;;;2.33;1.80;;;17.90;53.30;;;;;;10442972;28;20228;-63
2021/11/10 09:59:55;;;;;;;2.73;1.90;;;17.90;52.80;;;;;;10439676;28;20196;-63
2021/11/10 10:05:26;;;;;;;3.20;2.20;;;17.90;52.50;;;;;;10436663;28;20759;-63
2021/11/10 10:10:50;;;;;;;3.30;1.70;;;17.90;52.50;;;;;;10442729;28;20201;-63
2021/11/10 10:16:20;;;;;;;2.63;2.07;;;17.90;52.60;;;;;;10435555;28;20224;-63
2021/11/10 10:21:42;;;;;;;3.47;1.90;;;17.90;52.70;;;;;;10435626;28;20714;-63
2021/11/10 10:27:23;;;;;;;2.27;1.70;;;17.80;53.10;;;;;;10434429;28;20218;-63
2021/11/10 10:32:45;;;;;;;3.30;1.93;;;17.80;53.40;;;;;;10442641;28;20284;-63
2021/11/10 10:38:09;;;;;;;2.73;1.63;;;17.70;53.50;;;;;;10412767;28;20220;-62
2021/11/10 10:43:39;;;;;;;3.37;1.63;;;17.70;53.80;;;;;;10432046;28;20229;-63
2021/11/10 10:49:17;;;;;;;4.13;2.30;;;17.70;54.00;;;;;;10435266;28;20716;-62
2021/11/10 10:54:40;;;;;;;4.37;2.20;;;17.60;54.50;;;;;;10429288;28;20225;-62
2021/11/10 11:00:10;;;;;;;2.37;1.77;;;17.60;54.30;;;;;;10423790;28;20205;-63
2021/11/10 11:05:39;;;;;;;2.80;1.47;;;17.60;54.50;;;;;;10414716;28;20447;-63
2021/11/10 11:11:02;;;;;;;3.47;1.90;;;17.60;54.40;;;;;;10419492;28;20197;-63
2021/11/10 11:16:36;;;;;;;3.33;2.30;;;17.60;54.30;;;;;;10445412;28;20213;-63
2021/11/10 11:21:58;;;;;;;5.30;2.23;;;17.60;54.20;;;;;;10416614;28;20252;-63
2021/11/10 11:27:29;;;;;;;2.47;1.43;;;17.60;53.80;;;;;;10438747;28;20209;-63
2021/11/10 11:32:55;;;;;;;2.53;1.87;;;17.70;53.60;;;;;;10415647;28;20204;-63
2021/11/10 11:38:20;;;;;;;2.93;1.90;;;17.70;53.60;;;;;;10437757;28;20220;-63
2021/11/10 11:43:43;;;;;;;2.77;1.60;;;17.70;53.60;;;;;;10415761;28;20228;-63
2021/11/10 11:49:06;;;;;;;3.27;1.90;;;17.80;53.60;;;;;;10422323;28;20572;-61
2021/11/10 11:54:29;;;;;;;2.27;1.57;;;17.80;53.50;;;;;;10413897;28;20229;-61
2021/11/10 11:59:53;;;;;;;3.97;1.90;;;17.90;53.70;;;;;;10423072;28;20193;-60
2021/11/10 12:05:21;;;;;;;1.67;1.50;;;17.90;54.30;;;;;;10409487;28;20232;-61
2021/11/10 12:10:43;;;;;;;2.63;1.77;;;17.90;54.10;;;;;;10415211;28;20933;-60
2021/11/10 12:16:21;;;;;;;1.57;1.37;;;17.90;53.60;;;;;;10407569;28;20253;-61
2021/11/10 12:21:48;;;;;;;5.57;1.50;;;17.90;54.10;;;;;;10419206;28;20229;-60
2021/11/10 12:27:22;;;;;;;3.33;1.70;;;17.90;54.60;;;;;;10424671;28;20220;-62
2021/11/10 12:32:57;;;;;;;3.40;1.63;;;17.90;54.50;;;;;;10424504;28;20205;-61
2021/11/10 12:38:23;;;;;;;3.50;2.13;;;18.00;55.30;;;;;;10428123;28;20214;-61
2021/11/10 12:43:47;;;;;;;2.70;1.77;;;18.00;53.50;;;;;;10433449;28;20679;-61
2021/11/10 12:49:16;;;;;;;2.77;1.93;;;18.00;53.10;;;;;;10438310;28;20205;-62
2021/11/10 12:54:41;;;;;;;2.73;2.07;;;18.00;53.00;;;;;;10456455;22;20221;-60
2021/11/10 13:00:05;;;;;;;3.87;1.80;;;18.00;53.00;;;;;;10405370;28;20206;-63
2021/11/10 13:05:29;;;;;;;5.67;1.97;;;18.00;53.40;;;;;;10406041;28;20217;-63
2021/11/10 13:10:53;;;;;;;3.00;1.70;;;17.90;53.70;;;;;;10390420;28;20618;-63
2021/11/10 13:16:15;;;;;;;3.73;2.10;;;17.90;54.00;;;;;;10398079;28;20221;-64
2021/11/10 13:21:38;;;;;;;4.07;1.73;;;17.90;54.50;;;;;;10402988;28;20205;-63
2021/11/10 13:27:02;;;;;;;4.97;1.87;;;17.80;54.80;;;;;;10404412;28;20217;-63
2021/11/10 13:32:24;;;;;;;2.93;2.00;;;17.80;55.00;;;;;;10404724;28;20212;-61
2021/11/10 13:37:49;;;;;;;3.27;1.90;;;17.80;55.10;;;;;;10405631;28;20239;-64
2021/11/10 13:43:13;;;;;;;3.30;2.00;;;17.80;55.50;;;;;;10404930;28;20709;-60
2021/11/10 13:48:35;;;;;;;3.20;1.90;;;17.90;56.30;;;;;;10390175;28;20229;-63
2021/11/10 13:54:09;;;;;;;7.50;1.67;;;17.90;56.00;;;;;;10403745;28;20190;-61
2021/11/10 13:59:37;;;;;;;3.73;1.83;;;17.90;55.60;;;;;;10404853;28;20332;-63
2021/11/10 14:05:01;;;;;;;2.90;2.10;;;17.90;56.50;;;;;;10394784;28;20602;-63
2021/11/10 14:10:26;;;;;;;3.90;2.10;;;17.90;56.70;;;;;;10392335;28;20205;-63
2021/11/10 14:15:49;;;;;;;4.97;2.70;;;18.00;56.90;;;;;;10382905;28;20615;-64
2021/11/10 14:21:11;;;;;;;4.07;2.40;;;17.90;56.60;;;;;;10375524;28;20197;-64
2021/11/10 14:26:34;;;;;;;4.33;1.87;;;17.90;56.40;;;;;;10383942;28;20222;-63
2021/11/10 14:32:01;;;;;;;4.07;2.03;;;17.90;56.40;;;;;;10409153;28;20431;-62
2021/11/10 14:37:26;;;;;;;4.27;1.90;;;18.00;56.20;;;;;;10411465;28;20757;-63
2021/11/10 14:42:48;;;;;;;2.47;1.73;;;18.00;56.10;;;;;;10401956;28;20217;-63
2021/11/10 14:48:12;;;;;;;3.83;1.90;;;18.00;56.00;;;;;;10405720;28;20213;-62
2021/11/10 14:53:37;;;;;;;5.37;2.20;;;18.10;55.60;;;;;;10412366;28;20221;-64
2021/11/10 14:59:02;;;;;;;4.72;2.22;;;18.10;55.70;;;;;;10410751;28;20420;-63
2021/11/10 15:04:28;;;;;;;5.80;2.83;;;18.60;54.10;;;;;;10409336;28;20229;-62
2021/11/10 15:09:50;;;;;;;6.77;2.67;;;18.40;54.40;;;;;;10407170;28;20202;-64
2021/11/10 15:15:18;;;;;;;9.23;2.67;;;18.20;55.00;;;;;;10396356;28;20214;-64
2021/11/10 15:20:43;;;;;;;7.60;3.20;;;18.20;56.00;;;;;;10401483;28;20194;-62
2021/11/10 15:26:06;;;;;;;5.57;3.23;;;18.10;55.80;;;;;;10410881;28;20606;-63
2021/11/10 15:31:28;;;;;;;6.77;3.10;;;18.10;56.10;;;;;;10405549;28;20197;-64
2021/11/10 15:36:52;;;;;;;5.73;2.83;;;18.10;56.60;;;;;;10409615;28;20217;-63
2021/11/10 15:42:14;;;;;;;6.63;2.83;;;18.10;56.20;;;;;;10406777;28;20584;-62
2021/11/10 15:47:36;;;;;;;4.40;2.37;;;18.10;56.40;;;;;;10407251;28;20217;-64
2021/11/10 15:53:00;;;;;;;4.40;2.60;;;18.10;56.10;;;;;;10405682;28;20201;-63
2021/11/10 15:58:23;;;;;;;5.90;2.90;;;18.20;56.40;;;;;;10396138;28;20229;-63
2021/11/10 16:03:46;;;;;;;4.23;2.40;;;18.20;55.90;;;;;;10408007;28;20218;-63
2021/11/10 16:09:11;;;;;;;5.73;3.07;;;18.20;56.10;;;;;;10408237;28;20544;-62
2021/11/10 16:14:34;;;;;;;4.30;3.13;;;18.20;55.50;;;;;;10410623;28;20214;-62
2021/11/10 16:19:56;;;;;;;6.00;3.75;;;18.20;55.60;;;;;;10407101;28;20440;-64
2021/11/10 16:25:19;;;;;;;5.70;3.60;;;18.50;54.80;;;;;;10398634;28;20481;-62
2021/11/10 16:36:27;;;;;;;6.10;3.07;;;18.40;54.90;;;;;;10371214;28;20220;-62
2021/11/10 16:41:51;;;;;;;5.03;2.53;;;18.30;55.80;;;;;;10404133;28;20202;-63
2021/11/10 16:47:13;;;;;;;6.90;2.67;;;18.20;55.10;;;;;;10406860;28;20686;-64
2021/11/10 16:52:36;;;;;;;5.47;2.70;;;18.30;54.70;;;;;;10406103;28;20678;-64
2021/11/10 16:58:09;;;;;;;6.17;2.50;;;18.30;54.80;;;;;;10405842;28;20229;-64
2021/11/10 17:03:32;;;;;;;2.93;2.17;;;18.30;54.60;;;;;;10405247;28;20698;-64
2021/11/10 17:08:54;;;;;;;5.17;2.30;;;18.40;54.70;;;;;;10400538;28;20194;-64
2021/11/10 17:14:17;;;;;;;4.10;2.60;;;18.40;54.70;;;;;;10400588;28;20214;-63
2021/11/10 17:19:40;;;;;;;4.73;2.93;;;18.40;54.80;;;;;;10406594;28;20288;-63
2021/11/10 17:25:02;;;;;;;4.17;2.57;;;18.40;54.90;;;;;;10402390;28;20698;-64
2021/11/10 17:30:26;;;;;;;6.13;3.70;;;18.30;55.20;;;;;;10399629;28;20686;-61
2021/11/10 17:35:50;;;;;;;5.10;3.00;;;18.30;55.10;;;;;;10407186;28;20213;-63
2021/11/10 17:41:13;;;;;;;6.20;3.10;;;18.30;55.10;;;;;;10406958;28;20663;-63
2021/11/10 17:46:37;;;;;;;4.90;2.83;;;18.20;55.40;;;;;;10416831;28;20225;-63
2021/11/10 17:52:00;;;;;;;6.13;3.27;;;18.30;55.70;;;;;;10414630;28;20204;-62
2021/11/10 17:57:22;;;;;;;5.13;3.10;;;18.30;55.80;;;;;;10416027;28;20217;-63
2021/11/10 18:02:46;;;;;;;6.20;2.90;;;18.30;56.10;;;;;;10415356;28;20198;-64
2021/11/10 18:08:09;;;;;;;5.00;2.77;;;18.20;56.40;;;;;;10376955;28;20320;-64
2021/11/10 18:13:31;;;;;;;4.07;2.83;;;18.20;56.10;;;;;;10369335;28;20198;-64
2021/11/10 18:18:55;;;;;;;4.00;2.60;;;18.30;56.40;;;;;;10367042;28;20591;-64
2021/11/10 18:24:18;;;;;;;5.13;3.00;;;18.20;56.20;;;;;;10384978;28;20591;-64
2021/11/10 18:29:40;;;;;;;3.97;2.87;;;18.20;55.50;;;;;;10405149;28;20593;-64
2021/11/10 18:35:04;;;;;;;4.70;3.30;;;18.20;55.40;;;;;;10400130;28;20226;-64
2021/11/10 18:40:30;;;;;;;5.30;3.67;;;18.20;55.50;;;;;;10405337;28;20201;-62
2021/11/10 18:45:52;;;;;;;8.00;4.80;;;18.20;55.40;;;;;;10411836;28;20249;-63
2021/11/10 18:51:16;;;;;;;7.57;5.13;;;18.20;55.50;;;;;;10409100;28;20200;-61
2021/11/10 18:56:39;;;;;;;13.70;7.80;;;18.20;55.50;;;;;;10406663;28;20217;-64
2021/11/10 19:02:04;;;;;;;8.83;5.77;;;18.20;55.30;;;;;;10415513;22;20317;-60
2021/11/10 19:07:35;;;;;;;10.50;5.67;;;18.20;55.20;;;;;;10391142;28;20699;-62
2021/11/10 19:13:15;;;;;;;7.77;5.13;;;18.20;55.30;;;;;;10371084;28;20201;-63
2021/11/10 19:18:55;;;;;;;29.60;14.40;;;18.20;56.30;;;;;;10369174;28;20615;-62
2021/11/10 19:24:19;;;;;;;26.83;14.23;;;18.20;55.50;;;;;;10396726;28;20779;-61
2021/11/10 19:29:42;;;;;;;30.87;15.53;;;18.20;55.10;;;;;;10410827;28;20228;-59
2021/11/10 19:35:05;;;;;;;28.83;15.07;;;18.20;55.00;;;;;;10411388;28;20694;-61
2021/11/10 19:40:29;;;;;;;23.50;12.57;;;18.20;55.20;;;;;;10406754;28;20205;-60
2021/11/10 19:45:52;;;;;;;18.40;10.20;;;18.20;55.70;;;;;;10404208;28;20226;-60
2021/11/10 19:51:15;;;;;;;13.43;7.30;;;18.20;55.80;;;;;;10430144;28;20194;-58
2021/11/10 19:56:39;;;;;;;12.80;6.70;;;18.30;55.20;;;;;;10432251;28;20706;-59
2021/11/10 20:02:01;;;;;;;9.70;5.87;;;18.20;55.00;;;;;;10432795;28;20217;-59
2021/11/10 20:07:26;;;;;;;11.63;6.73;;;18.20;55.00;;;;;;10419873;28;20229;-58
2021/11/10 20:12:51;;;;;;;14.40;7.80;;;18.20;55.10;;;;;;10394039;28;20202;-58
2021/11/10 20:18:13;;;;;;;10.63;7.13;;;18.10;55.30;;;;;;10386691;28;20213;-59
2021/11/10 20:23:36;;;;;;;8.57;5.70;;;18.20;55.70;;;;;;10396041;28;20218;-59
2021/11/10 20:28:59;;;;;;;11.17;6.20;;;18.20;56.30;;;;;;10385756;28;20214;-60
2021/11/10 20:34:22;;;;;;;11.10;6.40;;;18.20;56.00;;;;;;10387047;28;20577;-60
2021/11/10 20:39:44;;;;;;;9.27;6.07;;;18.20;55.30;;;;;;10391998;28;20214;-60
2021/11/10 20:45:09;;;;;;;9.40;5.87;;;18.20;55.30;;;;;;10388808;28;20839;-60
2021/11/10 20:50:33;;;;;;;8.90;5.40;;;18.20;55.20;;;;;;10388704;28;20202;-59
2021/11/10 20:55:55;;;;;;;7.40;5.00;;;18.20;55.30;;;;;;10385796;28;20226;-60
2021/11/10 21:01:19;;;;;;;6.17;4.33;;;18.20;55.30;;;;;;10409192;28;20575;-59
2021/11/10 21:06:41;;;;;;;9.77;4.70;;;18.20;55.50;;;;;;10409211;28;20228;-59
2021/11/10 21:12:03;;;;;;;8.50;5.23;;;18.20;55.60;;;;;;10408522;28;20570;-59
2021/11/10 21:17:28;;;;;;;7.90;4.90;;;18.20;55.70;;;;;;10407925;28;20221;-59
2021/11/10 21:22:51;;;;;;;9.23;4.63;;;18.10;55.80;;;;;;10408679;28;20198;-59
2021/11/10 21:28:14;;;;;;;7.60;4.50;;;18.10;55.80;;;;;;10408600;28;20224;-60
2021/11/10 21:33:37;;;;;;;5.67;4.30;;;18.20;56.00;;;;;;10407589;28;20200;-61
2021/11/10 21:39:00;;;;;;;7.37;4.70;;;18.10;55.80;;;;;;10409084;28;20281;-61
2021/11/10 21:44:22;;;;;;;6.13;4.10;;;18.10;55.70;;;;;;10407203;28;20218;-60
2021/11/10 21:49:46;;;;;;;6.27;3.87;;;18.10;55.90;;;;;;10408359;28;20698;-60
2021/11/10 21:55:10;;;;;;;6.90;3.70;;;18.00;56.30;;;;;;10368831;28;20211;-59
2021/11/10 22:00:34;;;;;;;8.17;4.30;;;17.90;56.70;;;;;;10368188;28;20580;-60
2021/11/10 22:05:57;;;;;;;7.47;3.57;;;17.90;57.20;;;;;;10389343;28;20217;-60
2021/11/10 22:11:20;;;;;;;6.43;3.90;;;17.80;57.40;;;;;;10405599;28;20205;-60
2021/11/10 22:16:42;;;;;;;7.23;4.30;;;17.80;57.70;;;;;;10388435;28;20261;-60
2021/11/10 22:22:06;;;;;;;5.67;3.63;;;17.70;57.90;;;;;;10366702;28;20225;-59
2021/11/10 22:27:28;;;;;;;6.03;3.50;;;17.70;58.10;;;;;;10406158;28;20302;-60
2021/11/10 22:32:50;;;;;;;6.43;3.80;;;17.60;58.20;;;;;;10413024;28;20206;-60
2021/11/10 22:38:14;;;;;;;5.20;3.40;;;17.60;58.40;;;;;;10414910;28;20220;-59
2021/11/10 22:43:37;;;;;;;5.13;3.53;;;17.60;58.40;;;;;;10414656;28;20194;-60
2021/11/10 22:48:59;;;;;;;5.40;3.30;;;17.60;58.40;;;;;;10414968;28;20543;-59
2021/11/10 22:54:23;;;;;;;5.37;3.50;;;17.60;58.40;;;;;;10413405;28;20251;-59
2021/11/10 22:59:45;;;;;;;6.03;3.43;;;17.60;58.40;;;;;;10413936;28;20213;-60
2021/11/10 23:05:08;;;;;;;6.83;4.03;;;17.60;58.20;;;;;;10413859;28;20714;-59
2021/11/10 23:10:32;;;;;;;7.10;3.73;;;17.60;58.10;;;;;;10410470;28;20579;-58
2021/11/10 23:15:54;;;;;;;5.73;3.70;;;17.70;58.00;;;;;;10413666;28;20217;-60
2021/11/10 23:21:16;;;;;;;6.90;3.80;;;17.70;58.00;;;;;;10412654;28;20198;-58
2021/11/10 23:26:40;;;;;;;9.80;5.57;;;17.60;58.10;;;;;;10413284;28;20221;-59
2021/11/10 23:32:02;;;;;;;12.73;6.90;;;17.60;58.20;;;;;;10410702;28;20202;-59
2021/11/10 23:37:24;;;;;;;12.80;5.80;;;17.60;58.30;;;;;;10413191;28;20244;-57
2021/11/10 23:42:48;;;;;;;8.63;4.90;;;17.60;58.50;;;;;;10411260;28;20198;-59
2021/11/10 23:48:10;;;;;;;7.93;5.10;;;17.60;58.50;;;;;;10412170;28;20248;-60
2021/11/10 23:53:33;;;;;;;8.30;5.33;;;17.60;58.40;;;;;;10413288;28;20201;-58
2021/11/10 23:58:56;;;;;;;11.13;5.13;;;17.60;58.40;;;;;;10412168;28;20205;-58
